Terminal Aerodrome Forecast
Issued by NWS

Home | Current Version | Previous Version | Text Only | Print | Product List | Glossary On
Versions: 1 2 3 4 5 6 7 8 9 10 11 12 13 14 15 16
414
FTUS43 KDVN 210520
TAFBRL
TAF
KBRL 210520Z 2106/2206 28007KT P6SM SKC
     FM211500 30012KT P6SM SCT050
     FM212300 28006KT P6SM SKC=

USA.gov is the U.S. government's official web portal to all federal, state and local government web resources and services.